Date,TemperatureHighF,TemperatureAvgF,TemperatureLowF,DewpointHighF,DewpointAvgF,DewpointLowF,HumidityHigh,HumidityAvg,HumidityLow,PressureMaxIn,PressureMinIn,WindSpeedMaxMPH,WindSpeedAvgMPH,GustSpeedMaxMPH,PrecipitationSumIn
2013-1-1,20,12,4,11,5,0,95,74,48,0.00,40.00,11,4,18,0.00
2013-1-2,38,24,9,29,18,7,95,77,50,0.00,40.00,15,7,21,0.10
2013-1-3,31,23,13,30,19,10,95,85,61,0.00,40.00,16,8,22,0.00
2013-1-4,42,28,14,28,22,13,95,78,45,0.00,40.00,18,9,27,0.00
2013-1-5,41,34,28,37,30,23,95,87,78,0.00,40.00,19,10,28,0.00
2013-1-6,33,24,17,24,17,8,95,74,48,0.00,40.00,18,8,29,0.00
2013-1-7,48,36,25,30,25,21,89,67,39,0.00,40.00,19,9,32,0.00
2013-1-8,51,40,31,36,32,27,91,73,48,0.00,40.00,17,8,27,0.00
2013-1-9,50,39,29,36,33,27,95,79,50,0.00,40.00,13,5,19,0.00
2013-1-10,45,36,30,38,33,23,95,87,43,0.00,40.00,14,6,23,0.58
2013-1-11,59,50,39,54,48,37,95,92,73,0.00,40.00,22,10,34,0.13
2013-1-12,57,30,20,51,23,13,95,75,59,0.00,40.00,20,11,30,0.00
2013-1-13,20,15,10,13,8,5,86,74,59,0.00,40.00,15,9,23,0.00
2013-1-14,29,18,8,16,10,5,95,72,41,0.00,40.00,9,3,12,0.00
2013-1-15,34,23,12,20,13,8,95,67,33,0.00,40.00,10,4,14,0.00
2013-1-16,46,34,19,37,25,12,95,70,57,0.00,40.00,16,9,24,0.00
2013-1-17,35,27,18,33,21,14,95,78,48,0.00,40.00,11,5,18,0.00
2013-1-18,58,43,21,36,31,20,95,66,40,0.00,40.00,27,13,42,0.00
2013-1-19,56,44,23,35,32,14,80,63,38,0.00,40.00,21,12,34,0.00
2013-1-20,23,14,9,15,8,4,95,76,55,0.00,40.00,19,8,27,0.17
2013-1-21,10,5,0,6,-3,-12,85,68,53,0.00,40.00,18,10,28,0.00
2013-1-22,15,8,1,6,-1,-5,77,64,51,0.00,40.00,7,4,12,0.00
2013-1-23,29,19,9,19,9,0,85,66,54,0.00,40.00,21,9,33,0.00
2013-1-24,22,12,4,8,-2,-7,69,52,35,0.00,40.00,14,8,22,0.00
2013-1-25,39,28,17,24,15,4,75,59,44,0.00,40.00,17,10,26,0.00
2013-1-26,34,21,8,16,8,3,77,57,35,0.00,40.00,11,6,16,0.00
2013-1-27,45,34,30,43,29,16,95,85,52,0.00,40.00,12,6,21,1.12
2013-1-28,56,42,35,54,41,34,95,95,95,0.00,40.00,11,5,17,0.00
2013-1-29,63,45,33,62,44,32,95,95,95,0.00,40.00,23,8,40,4.20
2013-1-30,34,25,17,33,23,14,95,94,83,0.00,40.00,24,13,35,0.65
2013-1-31,20,6,0,19,0,-6,95,77,71,0.00,40.00,20,13,29,0.00
2013-2-1,26,6,-7,20,0,-11,89,74,61,0.00,40.00,14,7,21,0.00
2013-2-2,27,22,18,23,17,9,95,82,66,0.00,40.00,14,1,24,0.03
2013-2-3,32,26,20,31,19,14,95,77,53,0.00,40.00,20,9,34,0.00
2013-2-4,30,24,17,26,22,15,95,91,78,0.00,40.00,17,6,24,0.00
2013-2-5,42,31,20,37,29,18,95,92,77,0.00,40.00,15,6,23,0.00
2013-2-6,47,35,21,39,32,20,95,86,71,0.00,40.00,14,5,19,0.00
2013-2-7,42,36,30,39,34,29,95,95,85,0.00,40.00,15,7,24,1.69
2013-2-8,31,29,27,29,28,26,95,95,95,0.00,40.00,15,7,21,0.00
2013-2-9,35,32,28,34,30,27,95,95,93,0.00,40.00,16,10,24,0.14
2013-2-10,57,41,34,53,37,28,95,87,55,0.00,40.00,29,15,47,0.41
2013-2-11,36,33,29,29,26,24,88,76,68,0.00,40.00,29,18,40,0.10
2013-2-12,45,35,26,32,28,25,95,76,45,0.00,40.00,12,7,17,0.00
2013-2-13,51,39,27,32,29,26,95,71,41,0.00,40.00,12,7,18,0.00
2013-2-14,44,38,28,33,30,22,90,74,58,0.00,40.00,18,11,30,0.06
2013-2-15,29,24,18,22,14,6,86,66,39,0.00,40.00,16,8,26,0.00
2013-2-16,34,23,13,21,15,11,94,74,43,0.00,40.00,10,6,17,0.00
2013-2-17,44,32,20,26,22,18,95,70,45,0.00,40.00,16,9,25,0.00
2013-2-18,46,35,19,39,29,11,95,78,65,0.00,40.00,27,11,39,0.52
2013-2-19,25,18,12,12,7,4,78,62,42,0.00,40.00,24,16,37,0.00
2013-2-20,24,14,2,14,4,-3,81,64,45,0.00,40.00,13,5,19,0.00
2013-2-21,27,22,18,26,19,13,95,85,72,0.00,40.00,23,13,29,0.13
2013-2-22,30,26,23,27,23,19,95,88,75,0.00,40.00,16,9,22,0.15
2013-2-23,34,26,19,22,20,18,95,78,57,0.00,40.00,12,7,16,0.00
2013-2-24,42,28,14,33,24,13,95,85,60,0.00,40.00,8,3,11,0.00
2013-2-25,40,33,26,35,31,25,95,91,75,0.00,40.00,14,5,19,0.00
2013-2-26,35,33,31,33,31,29,95,92,87,0.00,40.00,14,12,22,0.32
2013-2-27,30,29,28,29,28,27,95,95,95,0.00,40.00,15,11,24,0.33
2013-2-28,32,28,22,30,26,21,95,95,95,0.00,40.00,13,8,22,0.19
2013-3-1,28,26,23,27,25,22,95,93,77,0.00,40.00,11,7,16,0.66
2013-3-2,28,21,13,22,17,12,95,86,63,0.00,40.00,11,5,15,0.00
2013-3-3,34,27,15,27,21,13,95,80,55,0.00,40.00,12,6,17,0.01
2013-3-4,37,32,27,35,31,26,95,94,86,0.00,40.00,16,10,22,0.16
2013-3-5,32,30,28,30,28,23,95,91,72,0.00,40.00,19,11,29,1.16
2013-3-6,30,26,19,27,23,18,95,89,75,0.00,40.00,14,7,22,0.00
2013-3-7,33,23,13,29,21,12,95,91,70,0.00,40.00,13,4,16,0.00
2013-3-8,47,35,24,38,31,23,95,86,58,0.00,40.00,13,8,20,0.45
2013-3-9,47,40,37,45,38,36,95,95,91,0.00,40.00,15,9,26,2.74
2013-3-10,50,40,34,48,39,33,95,95,95,0.00,40.00,11,6,17,2.02
2013-3-11,34,30,26,33,29,24,95,95,89,0.00,40.00,19,11,27,0.33
2013-3-12,35,29,24,32,26,20,95,88,68,0.00,40.00,24,12,35,0.39
2013-3-13,36,28,20,27,20,15,95,75,45,0.00,40.00,18,8,26,0.00
2013-3-14,56,40,26,42,33,25,95,79,51,0.00,40.00,12,6,19,0.16
2013-3-15,57,41,29,50,39,27,95,90,67,0.00,40.00,11,4,16,0.00
2013-3-16,42,35,30,40,32,27,95,88,73,0.00,40.00,20,10,27,0.00
2013-3-17,38,32,24,33,27,23,95,82,66,0.00,40.00,17,10,22,0.08
2013-3-18,38,32,25,35,26,17,95,81,60,0.00,40.00,26,11,39,0.66
2013-3-19,41,28,18,23,14,8,85,57,30,0.00,40.00,15,9,21,0.00
2013-3-20,29,22,16,24,10,2,86,60,39,0.00,40.00,20,12,31,0.00
2013-3-21,35,24,13,17,11,7,79,60,38,0.00,40.00,8,4,13,0.00
2013-3-22,41,30,19,25,19,17,92,65,39,0.00,40.00,8,4,11,0.00
2013-3-23,42,35,30,32,25,21,95,69,45,0.00,40.00,14,7,24,0.02
2013-3-24,31,30,29,30,28,28,95,95,95,0.00,40.00,14,9,21,2.24
2013-3-25,36,30,26,29,27,24,95,88,67,0.00,40.00,17,9,26,0.53
2013-3-26,38,31,23,28,25,21,95,79,52,0.00,40.00,11,8,19,0.00
2013-3-27,48,35,24,34,28,23,95,75,44,0.00,40.00,8,3,12,0.00
2013-3-28,56,42,28,39,32,27,95,73,43,0.00,40.00,12,5,21,0.00
2013-3-29,62,47,31,38,35,29,95,67,37,0.00,40.00,12,4,16,0.00
2013-3-30,52,48,41,51,45,-100,95,93,70,0.00,40.00,21,7,32,0.28
2013-3-31,55,45,36,47,37,23,95,75,32,0.00,40.00,19,8,29,0.00
2013-4-1,40,32,25,24,20,15,85,60,37,0.00,40.00,17,9,25,0.00
2013-4-2,47,34,20,25,20,18,95,62,32,0.00,40.00,13,5,23,0.00
2013-4-3,51,37,24,26,20,13,95,54,24,0.00,40.00,11,4,16,0.00
2013-4-4,64,46,28,43,30,22,93,59,29,0.00,40.00,12,4,18,0.00
2013-4-5,61,49,33,36,32,28,93,56,31,0.00,40.00,12,6,19,0.00
2013-4-6,68,60,51,52,43,34,78,54,42,0.00,40.00,26,12,37,0.00
2013-4-7,69,54,37,47,44,36,95,71,45,0.00,40.00,11,5,18,0.00
2013-4-8,74,63,54,65,58,46,95,86,60,0.00,40.00,11,6,17,0.98
2013-4-9,79,63,49,67,59,47,95,90,65,0.00,40.00,18,8,26,0.15
2013-4-10,49,43,41,47,41,39,95,95,95,0.00,40.00,17,9,32,11.69
2013-4-11,45,40,37,43,38,33,95,93,84,0.00,40.00,19,8,27,0.26
2013-4-12,41,38,35,36,34,29,95,85,70,0.00,40.00,18,12,24,0.06
2013-4-13,52,42,32,41,31,24,80,65,50,0.00,40.00,17,8,21,0.20
2013-4-14,77,58,44,60,49,41,95,74,36,0.00,40.00,26,12,42,0.47
2013-4-15,54,47,41,53,42,33,95,82,55,0.00,40.00,17,7,21,0.14
2013-4-16,50,43,33,42,35,31,95,76,55,0.00,40.00,12,6,16,0.00
2013-4-17,51,45,40,50,43,39,95,92,75,0.00,40.00,22,10,35,7.34
2013-4-18,54,43,36,52,42,34,95,94,86,0.00,40.00,25,13,32,2.65
2013-4-19,44,38,33,34,29,25,93,72,48,0.00,40.00,26,16,36,0.00
2013-4-20,49,38,27,33,27,21,95,67,34,0.00,40.00,10,6,16,0.44
2013-4-21,67,53,40,47,39,31,76,61,45,0.00,40.00,18,12,29,0.47
2013-4-22,67,62,52,52,48,43,95,61,44,0.00,40.00,16,8,26,0.30
2013-4-23,52,39,35,50,36,30,95,88,66,0.00,40.00,17,11,26,0.69
2013-4-24,54,42,29,43,29,24,95,63,35,0.00,40.00,17,9,33,0.40
2013-4-25,61,48,36,43,36,31,95,65,36,0.00,40.00,12,8,21,0.00
2013-4-26,67,58,49,52,45,37,82,62,46,0.00,40.00,23,12,38,0.00
2013-4-27,62,53,42,52,48,40,95,84,63,0.00,40.00,11,5,19,0.00
2013-4-28,75,60,41,55,50,40,95,73,47,0.00,40.00,12,4,16,0.00
2013-4-29,82,68,52,68,60,51,95,77,54,0.00,40.00,13,7,20,0.07
2013-4-30,87,78,68,65,57,53,73,50,34,0.00,40.00,24,13,34,0.00
2013-5-1,72,60,45,55,50,38,86,70,49,0.00,40.00,26,10,34,0.00
2013-5-2,45,38,33,39,36,32,95,92,79,0.00,40.00,19,14,32,8.76
2013-5-3,36,34,33,35,33,31,95,95,95,0.00,40.00,16,10,24,7.13
2013-5-4,61,50,36,59,49,34,95,95,95,0.00,40.00,11,5,17,1.21
2013-5-5,67,53,45,66,52,44,95,95,95,0.00,40.00,12,7,17,0.00
2013-5-6,75,59,49,65,53,47,95,83,40,0.00,40.00,10,4,16,0.00
2013-5-7,79,64,48,60,53,47,95,71,38,0.00,40.00,9,2,16,0.00
2013-5-8,76,64,51,66,58,49,95,85,48,0.00,40.00,10,3,17,0.96
2013-5-9,69,63,59,66,61,58,95,94,81,0.00,40.00,11,4,19,0.52
2013-5-10,62,54,51,58,51,-100,95,93,77,0.00,40.00,13,7,21,0.33
2013-5-11,57,52,42,52,36,-100,95,59,28,0.00,40.00,22,10,39,0.00
2013-5-12,60,49,36,36,29,26,75,48,26,0.00,40.00,12,5,20,0.00
2013-5-13,75,59,38,51,44,33,95,61,34,0.00,40.00,13,5,22,0.00
2013-5-14,91,77,59,72,62,51,93,62,39,0.00,40.00,21,8,29,0.00
2013-5-15,82,74,64,60,53,45,80,50,27,0.00,40.00,13,5,26,0.28
2013-5-16,81,66,60,71,43,-100,95,79,56,0.00,40.00,10,4,16,0.30
2013-5-17,80,70,61,68,60,-100,95,85,65,0.00,40.00,12,5,17,0.00
2013-5-18,83,72,61,74,67,60,95,84,61,0.00,40.00,16,6,21,0.17
2013-5-19,86,75,63,76,70,61,95,85,61,0.00,40.00,14,8,46,1.45
2013-5-20,81,70,61,70,65,60,95,84,63,0.00,40.00,18,10,30,0.32
2013-5-21,75,66,57,63,60,54,95,80,59,0.00,40.00,15,8,24,0.13
2013-5-22,64,58,54,61,57,53,95,93,85,0.00,40.00,18,8,22,0.13
2013-5-23,70,60,54,56,52,45,95,76,43,0.00,40.00,15,8,22,0.16
2013-5-24,69,60,48,55,49,45,95,68,45,0.00,40.00,13,6,21,0.11
2013-5-25,59,55,51,56,52,49,95,90,71,0.00,40.00,18,9,30,1.79
2013-5-26,63,58,52,62,56,50,95,95,95,0.00,40.00,15,8,22,0.98
2013-5-27,73,65,60,71,63,59,95,95,92,0.00,40.00,12,5,24,1.09
2013-5-28,81,68,60,80,67,58,95,95,95,0.00,40.00,19,7,28,4.53
2013-5-29,84,73,62,80,70,60,95,92,82,0.00,40.00,16,8,28,1.10
2013-5-30,78,71,63,71,67,62,95,89,73,0.00,40.00,19,10,32,0.79
2013-5-31,78,68,61,71,65,60,95,89,73,0.00,40.00,15,7,24,0.33
2013-6-1,68,65,61,67,62,56,95,88,71,0.00,40.00,16,9,29,0.13
2013-6-2,64,58,51,59,52,47,95,82,56,0.00,40.00,14,5,21,0.00
2013-6-3,71,60,47,57,52,46,95,75,55,0.00,40.00,9,4,15,0.52
2013-6-4,70,61,55,67,59,54,95,93,80,0.00,40.00,9,5,16,0.85
2013-6-5,69,64,61,67,63,59,95,95,92,0.00,40.00,7,3,12,0.40
2013-6-6,71,64,54,63,58,53,95,82,60,0.00,40.00,12,5,19,0.11
2013-6-7,70,60,53,62,57,52,95,88,60,0.00,40.00,9,3,12,0.07
2013-6-8,77,65,51,62,57,49,95,76,54,0.00,40.00,11,4,19,0.00
2013-6-9,73,67,62,70,63,58,95,88,65,0.00,40.00,16,7,25,3.46
2013-6-10,77,67,59,70,64,58,95,92,73,0.00,40.00,7,3,12,0.48
2013-6-11,89,75,62,81,72,61,95,90,72,0.00,40.00,11,4,18,0.00
2013-6-12,89,77,67,80,73,66,95,87,71,0.00,40.00,18,7,32,0.03
2013-6-13,83,73,63,70,66,62,95,80,56,0.00,40.00,17,5,28,0.10
2013-6-14,73,68,62,71,66,61,95,93,81,0.00,40.00,17,5,28,0.63
2013-6-15,83,69,65,80,68,63,95,95,84,0.00,40.00,16,5,27,2.18
2013-6-16,85,73,63,76,68,62,95,86,59,0.00,40.00,10,3,15,0.00
2013-6-17,88,73,64,76,68,63,95,86,49,0.00,40.00,9,2,14,0.00
2013-6-18,81,70,62,74,65,60,95,85,61,0.00,40.00,7,2,10,0.00
2013-6-19,84,73,63,71,66,61,95,81,57,0.00,40.00,12,5,16,0.00
2013-6-20,88,76,66,75,69,65,95,82,58,0.00,40.00,16,6,24,0.00
2013-6-22,92,88,82,81,79,77,90,74,65,0.00,40.00,16,9,24,0.13
2013-6-23,82,74,67,78,71,66,95,92,76,0.00,40.00,12,6,23,0.49
2013-6-24,84,72,67,80,70,66,95,95,86,0.00,40.00,9,5,18,0.26
2013-6-25,89,78,68,81,75,67,95,90,69,0.00,40.00,11,6,17,0.21
2013-6-26,90,79,71,82,75,69,95,89,71,0.00,40.00,12,6,18,0.00
2013-6-27,87,78,67,76,72,66,95,84,65,0.00,40.00,12,4,20,0.00
2013-6-28,85,76,67,72,64,58,95,69,40,0.00,40.00,16,7,29,0.08
2013-6-29,76,69,65,69,65,63,95,87,72,0.00,40.00,18,7,31,0.67
2013-6-30,77,70,62,65,61,57,95,75,50,0.00,40.00,13,8,21,0.00
2013-7-1,79,70,58,62,57,53,95,67,40,0.00,40.00,15,7,23,0.00
2013-7-2,79,66,56,70,61,54,95,85,52,0.00,40.00,8,2,19,0.10
2013-7-3,80,70,59,67,62,57,95,79,53,0.00,40.00,9,3,16,0.00
2013-7-4,85,74,60,66,62,58,95,69,43,0.00,40.00,8,4,11,0.26
2013-7-5,88,78,63,67,65,61,95,67,45,0.00,40.00,12,6,21,0.19
2013-7-6,91,77,66,73,68,65,95,75,48,0.00,40.00,10,5,17,0.11
2013-7-7,93,82,69,76,72,68,95,73,48,0.00,40.00,14,6,21,0.16
2013-7-8,88,82,78,80,73,69,93,74,65,0.00,40.00,12,7,19,0.48
2013-7-9,93,82,75,83,78,74,95,88,66,0.00,40.00,12,4,19,0.32
2013-7-10,82,77,66,78,65,-100,95,71,48,0.00,40.00,12,5,22,0.21
2013-7-11,84,72,60,67,62,58,95,72,44,0.00,40.00,9,3,13,0.00
2013-7-12,85,73,62,66,62,59,95,71,44,0.00,40.00,13,6,21,0.07
2013-7-13,77,70,63,69,64,60,95,79,66,0.00,40.00,9,4,17,0.00
2013-7-14,87,77,64,71,66,63,95,72,50,0.00,40.00,11,4,16,0.24
2013-7-15,89,78,69,78,73,67,95,84,62,0.00,40.00,9,3,16,0.20
2013-7-16,94,84,73,79,75,71,95,78,54,0.00,40.00,9,4,14,0.00
2013-7-17,96,85,74,78,75,72,95,74,46,0.00,40.00,9,3,14,0.11
2013-7-18,96,86,74,78,73,69,95,67,43,0.00,40.00,14,6,20,0.00
2013-7-19,96,84,78,75,72,71,81,68,47,0.00,40.00,16,7,24,0.04
2013-7-20,89,80,66,74,66,-100,95,65,45,0.00,40.00,9,3,12,0.17
2013-7-21,84,72,67,74,69,65,95,91,66,0.00,40.00,15,4,28,1.01
2013-7-22,90,71,65,81,68,64,95,91,68,0.00,40.00,24,4,34,0.56
2013-7-23,79,71,66,69,65,61,95,83,53,0.00,40.00,12,5,19,0.10
2013-7-24,78,69,61,67,63,60,95,82,62,0.00,40.00,8,3,13,0.00
2013-7-25,85,70,61,69,64,60,95,84,57,0.00,40.00,8,3,12,0.00
2013-7-26,80,70,61,75,65,59,95,85,55,0.00,40.00,14,5,23,0.30
2013-7-27,69,62,55,59,54,49,95,77,50,0.00,40.00,12,4,20,0.00
2013-7-28,76,63,50,61,55,49,95,77,50,0.00,40.00,11,5,17,0.00
2013-7-29,76,66,52,65,60,51,95,81,61,0.00,40.00,9,4,14,0.13
2013-7-30,71,67,64,69,66,62,95,95,90,0.00,40.00,7,4,13,0.87
2013-7-31,81,70,66,72,68,65,95,93,68,0.00,40.00,7,3,11,0.17
2013-8-1,86,73,63,72,67,62,95,83,51,0.00,40.00,6,3,12,0.00
2013-8-2,85,75,68,74,70,66,95,85,67,0.00,40.00,11,5,20,0.00
2013-8-3,79,71,63,66,63,59,95,77,50,0.00,40.00,9,4,14,0.08
2013-8-4,81,70,57,67,62,56,95,78,50,0.00,40.00,10,3,14,0.00
2013-8-5,81,71,65,77,70,63,95,95,87,0.00,40.00,7,2,14,0.04
2013-8-6,91,74,69,80,72,67,95,92,65,0.00,40.00,17,3,35,0.38
2013-8-7,82,73,67,80,71,65,95,93,74,0.00,40.00,12,4,16,0.37
2013-8-8,79,68,61,70,65,60,95,90,66,0.00,40.00,7,2,11,0.00
2013-8-9,81,70,65,72,67,64,95,92,70,0.00,40.00,7,2,12,0.00
2013-8-10,80,67,59,67,62,57,95,86,53,0.00,40.00,7,2,11,0.10
2013-8-11,87,73,63,70,66,62,95,80,51,0.00,40.00,10,4,17,0.00
2013-9-1,85,76,67,73,67,61,95,77,46,0.00,40.00,12,6,21,0.18
2013-9-2,79,68,58,65,58,51,95,75,38,0.00,40.00,9,4,16,0.00
2013-9-3,80,64,50,62,56,49,95,78,39,0.00,40.00,8,2,12,0.00
2013-9-4,88,69,56,71,61,55,95,79,43,0.00,40.00,3,1,9,0.00
2013-9-5,92,78,65,73,68,63,95,75,44,0.00,40.00,4,1,9,0.08
2013-9-6,93,80,64,71,65,62,95,65,36,0.00,40.00,11,4,16,0.00
2013-9-7,99,81,72,77,65,-100,89,63,42,0.00,40.00,14,6,21,0.16
2013-9-8,90,79,71,78,76,69,95,88,67,0.00,40.00,12,5,18,0.24
2013-10-27,61,48,26,36,32,24,95,58,34,0.00,40.00,11,5,18,0.00
2013-10-28,59,44,32,40,31,-100,95,68,42,0.00,40.00,14,5,19,0.00
2013-10-29,59,52,41,53,46,39,95,81,65,0.00,40.00,9,6,14,0.00
2013-10-30,63,57,53,61,56,51,95,95,95,0.00,40.00,13,6,22,2.53
2013-10-31,53,46,44,52,45,43,95,95,95,0.00,40.00,9,6,17,0.34
2013-11-1,54,50,42,45,43,40,95,77,63,0.00,40.00,14,8,21,0.00
2013-11-2,53,46,36,44,33,-100,95,67,47,0.00,40.00,12,6,20,0.00